Latest Weather Observations for Walpole North

IDW60801

Issued at 10:32 am WST Monday 30 May 2016 (issued every 30 minutes, with the page automatically refreshed every 10 minutes)

About weather observations | Map of weather stations | Latest weather observations for WA | Other Formats
Station Details ID: 009998 Name: NORTH WALPOLE Lat: -34.95 Lon: 116.72 Height: 73.0 m
Data from the previous 72 hours. | See also: Recent months at Walpole North
Date/Time
WST
Temp
°C
App
Temp
°C
Dew
Point
Rel
Hum
%
Delta-T
°C
Wind Press
QNH
hPa
Press
MSL
hPa
Rain
since 9 am
mm
Dir
 
Spd
km/h
Gust
km/h
Spd
kts
Gust
kts
30/10:30am 12.7 9.0 6.5 66 3.0 NNE 15 20 8 11 1020.3 1020.2 0.0
30/10:00am 12.6 9.6 7.5 71 2.5 NNE 13 17 7 9 1020.6 1020.5 0.0
30/09:30am 11.4 8.8 5.9 69 2.6 NNE 9 15 5 8 1020.4 1020.3 0.0
30/09:00am 10.3 8.2 6.8 79 1.6 NE 7 13 4 7 1020.3 1020.2 0.0
30/08:30am 8.5 5.9 6.3 86 1.0 NE 9 13 5 7 1020.4 1020.3 0.0
30/08:00am 6.6 4.4 6.2 97 0.2 ENE 7 9 4 5 1020.5 1020.4 0.0
30/07:30am 6.0 5.1 5.9 99 0.0 CALM 0 0 0 0 1020.3 1020.2 0.0
30/07:00am 5.6 4.5 5.3 98 0.1 CALM 0 0 0 0 1020.5 1020.4 0.0
30/06:30am 6.2 5.2 5.8 97 0.2 CALM 0 0 0 0 1020.3 1020.2 0.0
30/06:00am 6.8 5.9 6.2 96 0.3 CALM 0 0 0 0 1020.0 1019.9 0.0
30/05:30am 6.9 6.0 6.2 95 0.3 CALM 0 0 0 0 1019.7 1019.7 0.0
30/05:00am 7.1 6.2 5.9 92 0.5 CALM 0 0 0 0 1019.5 1019.5 0.0
30/04:30am 7.7 6.8 6.2 90 0.7 CALM 0 0 0 0 1019.2 1019.2 0.0
30/04:00am 8.5 6.4 6.6 88 0.9 NE 7 11 4 6 1019.2 1019.2 0.0
30/03:30am 9.0 6.4 6.3 83 1.2 NE 9 13 5 7 1019.4 1019.4 0.0
30/03:00am 8.8 6.8 7.3 90 0.7 NE 7 11 4 6 1019.4 1019.4 0.0
30/02:30am 9.5 7.4 6.8 83 1.3 NE 7 13 4 7 1019.6 1019.6 0.0
30/02:00am 10.6 8.1 6.6 76 1.9 N 9 13 5 7 1019.6 1019.6 0.0
30/01:30am 10.4 8.5 7.5 82 1.4 NNE 7 13 4 7 1019.6 1019.6 0.0
30/01:00am 10.3 8.5 7.9 85 1.2 NNE 7 15 4 8 1019.9 1019.8 0.0
30/12:30am 10.0 9.8 9.1 94 0.4 CALM 0 6 0 3 1020.2 1020.1 0.0
30/12:00am 10.1 8.6 8.5 90 0.8 N 6 13 3 7 1020.3 1020.2 0.0
 
Date/Time
WST
Temp
°C
App
Temp
°C
Dew
Point
Rel
Hum
%
Delta-T
°C
Wind Press
QNH
hPa
Press
MSL
hPa
Rain
since 9 am
mm
Dir
 
Spd
km/h
Gust
km/h
Spd
kts
Gust
kts
29/11:30pm 10.0 10.0 9.7 98 0.2 CALM 0 0 0 0 1020.4 1020.3 0.0
29/11:00pm 10.1 10.0 9.6 97 0.3 CALM 0 0 0 0 1020.5 1020.4 0.0
29/10:30pm 10.1 10.0 9.3 95 0.4 CALM 0 0 0 0 1020.5 1020.4 0.0
29/10:00pm 10.1 9.9 9.0 93 0.5 CALM 0 0 0 0 1020.7 1020.6 0.0
29/09:30pm 10.0 8.5 9.2 95 0.4 N 7 11 4 6 1020.7 1020.6 0.0
29/09:00pm 10.2 10.2 9.9 98 0.2 CALM 0 9 0 5 1020.8 1020.7 0.0
29/08:30pm 10.3 10.4 10.0 98 0.2 CALM 0 0 0 0 1020.8 1020.7 0.0
29/08:00pm 10.3 9.2 10.0 98 0.2 ENE 6 9 3 5 1020.7 1020.6 0.0
29/07:30pm 10.1 10.0 9.5 96 0.3 CALM 0 0 0 0 1020.5 1020.4 0.0
29/07:00pm 10.3 10.3 9.7 96 0.3 CALM 0 0 0 0 1020.2 1020.1 0.0
29/06:30pm 10.8 10.9 10.2 96 0.3 CALM 0 0 0 0 1020.2 1020.1 0.0
29/06:00pm 10.8 10.7 9.4 91 0.7 CALM 0 0 0 0 1019.9 1019.8 0.0
29/05:30pm 10.9 10.6 8.8 87 1.0 CALM 0 0 0 0 1019.4 1019.4 0.0
29/05:00pm 11.7 11.6 9.4 86 1.2 CALM 0 0 0 0 1019.2 1019.2 0.0
29/04:30pm 12.0 10.8 9.6 85 1.2 SE 6 7 3 4 1019.0 1019.0 0.0
29/04:00pm 12.3 10.6 9.7 84 1.3 SE 9 13 5 7 1018.8 1018.8 0.0
29/03:30pm 12.8 12.5 8.5 75 2.1 CALM 0 0 0 0 1018.7 1018.7 0.0
29/03:00pm 12.6 10.7 9.2 80 1.7 SSW 9 15 5 8 1018.4 1018.4 0.0
29/02:30pm 13.3 12.4 9.4 77 2.0 S 4 11 2 6 1018.3 1018.3 0.0
29/02:00pm 13.0 11.4 8.9 76 2.1 SSE 7 13 4 7 1018.4 1018.4 0.0
29/01:30pm 13.5 13.0 7.7 68 2.9 CALM 0 0 0 0 1018.5 1018.5 0.0
29/01:00pm 13.1 11.7 7.1 67 2.9 SSW 4 9 2 5 1018.6 1018.6 0.0
29/12:30pm 13.3 11.7 8.0 70 2.6 SSW 6 15 3 8 1018.8 1018.8 0.0
29/12:00pm 13.7 12.3 7.2 65 3.2 W 4 9 2 5 1018.9 1018.9 0.0
29/11:30am 13.2 12.3 7.9 70 2.6 S 2 9 1 5 1019.2 1019.2 0.0
29/11:00am 13.1 11.4 8.4 73 2.3 SSE 7 13 4 7 1019.5 1019.5 0.0
29/10:30am 12.5 11.2 9.1 80 1.7 SSW 6 15 3 8 1019.6 1019.6 0.0
29/10:00am 11.8 11.8 9.7 87 1.1 CALM 0 0 0 0 1019.5 1019.5 0.0
29/09:30am 11.3 11.2 9.4 88 1.0 CALM 0 0 0 0 1019.3 1019.3 0.0
29/09:00am 10.9 10.6 8.5 85 1.2 CALM 0 0 0 0 1019.2 1019.2 2.6
29/08:30am 10.7 10.6 9.6 93 0.6 CALM 0 0 0 0 1019.0 1019.0 2.6
29/08:00am 10.3 10.0 8.7 90 0.8 CALM 0 0 0 0 1018.7 1018.7 2.6
29/07:30am 10.1 10.0 9.6 97 0.3 CALM 0 0 0 0 1018.3 1018.3 2.6
29/07:00am 10.2 10.1 9.4 95 0.4 CALM 0 0 0 0 1017.9 1017.9 2.6
29/06:30am 10.2 8.9 10.1 99 0.1 WNW 7 11 4 6 1017.5 1017.5 2.6
29/06:00am 10.2 10.3 10.1 99 0.1 CALM 0 0 0 0 1017.2 1017.2 2.6
29/05:30am 10.3 10.4 10.1 99 0.1 CALM 0 0 0 0 1016.9 1016.9 2.6
29/05:00am 10.3 8.7 10.1 99 0.1 NW 9 13 5 7 1016.7 1016.7 2.6
29/04:30am 10.1 10.2 10.0 99 0.1 CALM 0 0 0 0 1016.4 1016.4 2.4
29/04:00am 10.5 10.6 10.3 99 0.1 CALM 0 0 0 0 1016.3 1016.3 2.4
29/03:30am 10.6 10.8 10.4 99 0.1 CALM 0 0 0 0 1016.0 1016.0 2.4
29/03:00am 10.8 9.9 10.6 99 0.1 WNW 6 15 3 8 1015.9 1015.9 2.4
29/02:30am 10.9 10.0 10.7 99 0.1 SSW 6 13 3 7 1016.0 1016.0 2.0
29/02:00am 10.9 9.4 10.7 99 0.1 SW 9 17 5 9 1015.8 1015.7 2.0
29/01:30am 10.8 10.6 10.6 99 0.1 SW 2 13 1 7 1015.7 1015.6 1.8
29/01:00am 10.8 11.0 10.6 99 0.1 CALM 0 0 0 0 1015.7 1015.6 1.2
29/12:30am 10.9 9.4 10.7 99 0.1 W 9 13 5 7 1015.8 1015.7 1.2
29/12:00am 10.9 11.0 10.0 94 0.5 CALM 0 11 0 6 1015.8 1015.7 0.4
 
Date/Time
WST
Temp
°C
App
Temp
°C
Dew
Point
Rel
Hum
%
Delta-T
°C
Wind Press
QNH
hPa
Press
MSL
hPa
Rain
since 9 am
mm
Dir
 
Spd
km/h
Gust
km/h
Spd
kts
Gust
kts
28/11:30pm 10.8 10.7 9.4 91 0.7 CALM 0 0 0 0 1015.5 1015.4 0.2
28/11:00pm 12.0 10.0 10.2 89 0.9 SW 11 20 6 11 1015.5 1015.4 0.2
28/10:30pm 11.9 10.2 9.8 87 1.1 SSW 9 17 5 9 1015.4 1015.3 0.2
28/10:00pm 11.6 10.1 9.3 86 1.2 WSW 7 13 4 7 1015.4 1015.3 0.2
28/09:30pm 11.5 9.7 9.6 88 1.0 WSW 9 15 5 8 1015.2 1015.1 0.2
28/09:00pm 11.4 10.0 9.7 89 0.9 WSW 7 13 4 7 1015.0 1014.9 0.2
28/08:30pm 11.3 10.0 10.0 92 0.7 WSW 7 13 4 7 1014.8 1014.7 0.2
28/08:00pm 11.5 10.4 10.6 94 0.5 W 7 13 4 7 1014.8 1014.7 0.2
28/07:30pm 11.5 11.7 10.7 95 0.4 CALM 0 7 0 4 1014.6 1014.5 0.2
28/07:00pm 12.0 10.3 11.2 95 0.4 W 11 19 6 10 1014.0 1013.9 0.2
28/06:30pm 11.8 11.5 10.0 89 0.9 WSW 2 9 1 5 1013.7 1013.6 0.0
28/06:00pm 12.7 10.9 9.3 80 1.7 WSW 9 15 5 8 1013.6 1013.5 0.0
28/05:30pm 13.3 11.1 9.4 77 2.0 WSW 11 17 6 9 1013.2 1013.1 0.0
28/05:00pm 13.9 10.9 9.3 74 2.4 WSW 15 24 8 13 1013.0 1012.9 0.0
28/04:30pm 14.8 11.5 9.6 71 2.7 WSW 17 28 9 15 1012.7 1012.6 0.0
28/04:00pm 15.7 12.4 9.4 66 3.3 WSW 17 26 9 14 1012.4 1012.3 0.0
28/03:30pm 15.7 12.0 9.6 67 3.2 WSW 19 28 10 15 1012.1 1012.0 0.0
28/03:00pm 15.4 11.5 9.5 68 3.1 WSW 20 35 11 19 1011.7 1011.6 0.0
28/02:30pm 15.5 10.7 9.0 65 3.3 WSW 24 39 13 21 1011.4 1011.3 0.0
28/02:00pm 16.1 12.6 10.2 68 3.1 WSW 19 32 10 17 1011.0 1010.9 0.0
28/01:30pm 15.2 12.0 9.8 70 2.8 WSW 17 28 9 15 1010.8 1010.7 0.0
28/01:00pm 15.9 11.7 9.6 66 3.3 WSW 22 37 12 20 1010.6 1010.5 0.0
28/12:30pm 16.6 12.5 10.0 65 3.5 WSW 22 37 12 20 1010.6 1010.5 0.0
28/12:00pm 15.7 11.9 9.8 68 3.1 W 20 33 11 18 1010.8 1010.7 0.0
28/11:30am 15.9 12.0 10.7 71 2.8 WSW 22 35 12 19 1011.0 1010.9 0.0
28/11:00am 16.4 13.0 10.7 69 3.0 W 19 37 10 20 1011.0 1010.9 0.0
28/10:30am 15.1 12.7 12.6 85 1.4 WNW 17 24 9 13 1011.3 1011.2 0.0
28/10:00am 14.8 12.3 11.0 78 2.0 NW 15 19 8 10 1011.1 1011.0 0.0
28/09:30am 13.5 11.0 11.0 85 1.3 NW 15 19 8 10 1011.1 1011.0 0.0
28/09:00am 12.8 10.2 10.7 87 1.1 NW 15 26 8 14 1011.0 1010.9 16.8
28/08:30am 12.8 11.8 10.9 88 1.0 NW 7 13 4 7 1010.6 1010.5 16.8
28/08:00am 11.6 9.6 10.3 92 0.7 WNW 11 17 6 9 1010.6 1010.5 16.8
28/07:30am 11.4 9.1 10.5 94 0.5 WNW 13 17 7 9 1010.1 1010.0 16.8
28/07:00am 11.1 9.2 10.5 96 0.3 NW 11 17 6 9 1009.9 1009.8 16.8
28/06:30am 11.6 9.2 11.3 98 0.2 NW 15 20 8 11 1009.7 1009.6 16.2
28/06:00am 11.4 9.3 11.2 99 0.1 NW 13 17 7 9 1009.5 1009.4 16.2
28/05:30am 11.7 8.9 11.4 98 0.2 NW 17 24 9 13 1009.1 1009.0 16.2
28/05:00am 11.5 10.8 11.3 99 0.1 WNW 6 15 3 8 1009.0 1008.9 16.0
28/04:30am 12.1 8.9 11.8 98 0.2 NNW 20 28 11 15 1009.1 1009.0 13.8
28/04:00am 11.7 8.9 11.2 97 0.3 NNW 17 24 9 13 1008.8 1008.7 13.2
28/03:30am 11.6 8.7 11.1 97 0.3 NW 17 26 9 14 1009.0 1008.9 13.2
28/03:00am 11.4 10.1 11.2 99 0.1 N 9 17 5 9 1009.4 1009.3 13.0
28/02:30am 11.4 10.6 11.2 99 0.1 WNW 6 13 3 7 1009.8 1009.7 13.0
28/02:00am 11.5 9.8 11.3 99 0.1 NNW 11 19 6 10 1009.7 1009.6 10.4
28/01:30am 12.2 9.5 10.4 89 0.9 WNW 15 20 8 11 1010.6 1010.5 2.2
28/01:00am 14.0 10.5 8.6 70 2.7 NW 17 24 9 13 1009.8 1009.7 0.0
28/12:30am 14.4 10.7 8.1 66 3.2 NNW 17 30 9 16 1009.8 1009.7 0.0
28/12:00am 14.4 10.2 8.1 66 3.2 N 20 35 11 19 1009.6 1009.5 0.0
 
Date/Time
WST
Temp
°C
App
Temp
°C
Dew
Point
Rel
Hum
%
Delta-T
°C
Wind Press
QNH
hPa
Press
MSL
hPa
Rain
since 9 am
mm
Dir
 
Spd
km/h
Gust
km/h
Spd
kts
Gust
kts
27/11:30pm 14.2 10.2 8.2 67 3.0 N 19 35 10 19 1010.0 1009.9 0.0
27/11:00pm 13.9 10.2 8.1 68 2.9 N 17 32 9 17 1010.6 1010.5 0.0
27/10:30pm 13.8 10.1 7.8 67 3.0 NNE 17 28 9 15 1010.8 1010.7 0.0
27/10:00pm 13.7 11.1 7.7 67 3.0 N 11 20 6 11 1012.2 1012.1 0.0
27/09:30pm 13.6 9.8 7.6 67 3.0 N 17 30 9 16 1012.8 1012.7 0.0
27/09:00pm 13.8 9.7 7.8 67 3.0 NNE 19 30 10 16 1013.2 1013.1 0.0
27/08:30pm 14.1 10.4 8.1 67 3.0 NNE 17 26 9 14 1013.8 1013.7 0.0
27/08:00pm 14.2 10.9 7.9 66 3.1 NNE 15 24 8 13 1014.3 1014.2 0.0
27/07:30pm 14.6 11.4 8.3 66 3.2 NNE 15 24 8 13 1014.7 1014.6 0.0
27/07:00pm 15.0 11.8 8.3 64 3.4 NNE 15 22 8 12 1015.3 1015.2 0.0
27/06:30pm 15.2 12.4 8.7 65 3.3 NNE 13 22 7 12 1015.5 1015.4 0.0
27/06:00pm 15.2 12.8 8.7 65 3.3 NNE 11 19 6 10 1015.4 1015.3 0.0
27/05:30pm 15.3 13.3 8.8 65 3.3 NNE 9 15 5 8 1015.6 1015.5 0.0
27/05:00pm 15.3 13.3 8.8 65 3.3 N 9 15 5 8 1015.7 1015.6 0.0
27/04:30pm 15.8 13.8 8.8 63 3.6 NNW 9 15 5 8 1015.8 1015.7 0.0
27/04:00pm 16.1 14.2 9.1 63 3.6 NNW 9 15 5 8 1016.1 1016.1 0.0
27/03:30pm 16.3 14.3 8.8 61 3.9 NNW 9 17 5 9 1016.5 1016.5 0.0
27/03:00pm 16.4 13.1 8.1 58 4.2 NNW 15 28 8 15 1016.8 1016.8 0.0
27/02:30pm 17.2 13.2 9.1 59 4.2 NNW 20 32 11 17 1016.9 1016.9 0.0
27/02:00pm 16.8 12.4 8.8 59 4.1 NW 22 32 12 17 1017.2 1017.2 0.0
27/01:30pm 16.9 13.7 10.1 64 3.6 N 17 28 9 15 1017.6 1017.6 0.0
27/01:00pm 15.6 12.2 9.1 65 3.3 NNW 17 28 9 15 1018.3 1018.3 0.0
27/12:30pm 15.9 12.3 8.4 61 3.8 N 17 28 9 15 1018.6 1018.6 0.0
27/12:00pm 16.2 13.5 8.9 62 3.8 N 13 20 7 11 1019.2 1019.2 0.0
27/11:30am 16.4 13.8 9.3 63 3.7 N 13 26 7 14 1020.0 1019.9 0.0
27/11:00am 16.0 14.0 8.5 61 3.8 N 9 15 5 8 1020.3 1020.2 0.0

Other Formats:

Comma delimited format used in spreadsheet applications
http://www.bom.gov.au/fwo/IDW60801/IDW60801.95647.axf

JavaScript Object Notation format (JSON) in row-major order
http://www.bom.gov.au/fwo/IDW60801/IDW60801.95647.json